createdAt,value
2023-03-21T00:00:47.704Z,971.5492
2023-03-21T00:01:49.160Z,971.5369
2023-03-21T00:02:50.663Z,971.5131
2023-03-21T00:03:52.096Z,971.4892
2023-03-21T00:04:55.094Z,971.4753
2023-03-21T00:05:54.943Z,971.4569
2023-03-21T00:06:56.330Z,971.4408
2023-03-21T00:07:57.793Z,971.4446
2023-03-21T00:08:59.211Z,971.4400
2023-03-21T00:10:12.385Z,971.4408
2023-03-21T00:11:02.098Z,971.4485
2023-03-21T00:12:03.521Z,971.4508
2023-03-21T00:13:04.962Z,971.4470
2023-03-21T00:14:06.403Z,971.4508
2023-03-21T00:15:07.835Z,971.4500
2023-03-21T00:16:20.469Z,971.4684
2023-03-21T00:17:10.710Z,971.4746
2023-03-21T00:18:12.160Z,971.4792
2023-03-21T00:19:13.584Z,971.4792
2023-03-21T00:20:15.092Z,971.4808
2023-03-21T00:21:40.687Z,971.4761
2023-03-21T00:22:17.905Z,971.4661
2023-03-21T00:23:19.337Z,971.4438
2023-03-21T00:24:20.788Z,971.4277
2023-03-21T00:25:22.222Z,971.4108
2023-03-21T00:26:23.673Z,971.3862
2023-03-21T00:27:56.927Z,971.3700
2023-03-21T00:28:26.549Z,971.3500
2023-03-21T00:29:27.988Z,971.3347
2023-03-21T00:30:29.432Z,971.3208
2023-03-21T00:31:30.863Z,971.3100
2023-03-21T00:32:35.593Z,971.2915
2023-03-21T00:33:33.754Z,971.2854
2023-03-21T00:34:43.205Z,971.2739
2023-03-21T00:36:01.806Z,971.2615
2023-03-21T00:36:38.256Z,971.2615
2023-03-21T00:37:39.605Z,971.2492
2023-03-21T00:38:41.041Z,971.2338
2023-03-21T00:39:42.483Z,971.2246
2023-03-21T00:40:49.169Z,971.2238
2023-03-21T00:41:45.403Z,971.2215
2023-03-21T00:42:46.796Z,971.2246
2023-03-21T00:43:48.216Z,971.2208
2023-03-21T00:44:49.671Z,971.2169
2023-03-21T00:45:51.147Z,971.2085
2023-03-21T00:47:06.193Z,971.2023
2023-03-21T00:47:54.138Z,971.1954
2023-03-21T00:48:55.496Z,971.1862
2023-03-21T00:49:56.840Z,971.1761
2023-03-21T00:50:58.314Z,971.1723
2023-03-21T00:52:14.790Z,971.1708
2023-03-21T00:53:01.164Z,971.1677
2023-03-21T00:54:02.594Z,971.1577
2023-03-21T00:55:04.047Z,971.1561
2023-03-21T00:56:05.485Z,971.1500
2023-03-21T00:57:06.919Z,971.1354
2023-03-21T00:58:08.393Z,971.1292
2023-03-21T00:59:09.805Z,971.1138
2023-03-21T01:00:11.229Z,971.0908
2023-03-21T01:01:12.704Z,971.0739
2023-03-21T01:02:14.159Z,971.0523
2023-03-21T01:03:24.506Z,971.0469
2023-03-21T01:04:17.166Z,971.0423
2023-03-21T01:05:18.442Z,971.0562
2023-03-21T01:06:19.866Z,971.0585
2023-03-21T01:07:21.318Z,971.0670
2023-03-21T01:08:29.411Z,971.0700
2023-03-21T01:09:24.214Z,971.0654
2023-03-21T01:10:25.632Z,971.0469
2023-03-21T01:11:27.084Z,971.0300
2023-03-21T01:12:28.525Z,971.0123
2023-03-21T01:13:29.956Z,971.0077
2023-03-21T01:14:31.401Z,971.0154
2023-03-21T01:15:32.834Z,971.0154
2023-03-21T01:16:34.379Z,971.0208
2023-03-21T01:17:35.731Z,971.0292
2023-03-21T01:18:37.142Z,971.0438
2023-03-21T01:19:51.301Z,971.0592
2023-03-21T01:20:40.031Z,971.0638
2023-03-21T01:21:41.491Z,971.0731
2023-03-21T01:22:42.897Z,971.0785
2023-03-21T01:23:44.349Z,971.0770
2023-03-21T01:24:54.115Z,971.0731
2023-03-21T01:25:47.223Z,971.0770
2023-03-21T01:26:48.666Z,971.0762
2023-03-21T01:27:50.108Z,971.0770
2023-03-21T01:28:51.534Z,971.0746
2023-03-21T01:29:52.991Z,971.0815
2023-03-21T01:30:54.415Z,971.0731
2023-03-21T01:31:55.953Z,971.0700
2023-03-21T01:32:57.292Z,971.0739
2023-03-21T01:33:58.734Z,971.0708
2023-03-21T01:35:00.173Z,971.0685
2023-03-21T01:36:12.160Z,971.0670
2023-03-21T01:37:03.081Z,971.0662
2023-03-21T01:38:04.496Z,971.0715
2023-03-21T01:39:05.926Z,971.0869
2023-03-21T01:40:07.370Z,971.0854
2023-03-21T01:41:18.892Z,971.0854
2023-03-21T01:42:10.249Z,971.0823
2023-03-21T01:43:11.681Z,971.0731
2023-03-21T01:44:13.123Z,971.0670
2023-03-21T01:45:14.565Z,971.0562
2023-03-21T01:46:16.040Z,971.0446
2023-03-21T01:47:17.461Z,971.0262
2023-03-21T01:48:18.902Z,971.0077
2023-03-21T01:49:20.305Z,970.9977
2023-03-21T01:50:21.749Z,970.9700
2023-03-21T01:51:23.185Z,970.9592
2023-03-21T01:52:37.195Z,970.9515
2023-03-21T01:53:26.067Z,970.9423
2023-03-21T01:54:27.505Z,970.9400
2023-03-21T01:55:28.940Z,970.9362
2023-03-21T01:56:30.397Z,970.9392
2023-03-21T01:57:40.962Z,970.9285
2023-03-21T01:58:33.330Z,970.9238
2023-03-21T01:59:34.702Z,970.9254
2023-03-21T02:00:36.138Z,970.9230
2023-03-21T02:01:37.576Z,970.9177
2023-03-21T02:02:39.019Z,970.8985
2023-03-21T02:03:40.500Z,970.8770
2023-03-21T02:04:41.900Z,970.8585
2023-03-21T02:05:43.326Z,970.8300
2023-03-21T02:06:44.782Z,970.8115
2023-03-21T02:07:46.200Z,970.7938
2023-03-21T02:08:47.649Z,970.7816
2023-03-21T02:09:49.086Z,970.7723
2023-03-21T02:10:50.696Z,970.7715
2023-03-21T02:11:51.999Z,970.7800
2023-03-21T02:12:53.407Z,970.7831
2023-03-21T02:14:05.670Z,970.7869
2023-03-21T02:14:56.283Z,970.7762
2023-03-21T02:15:57.716Z,970.7715
2023-03-21T02:16:59.219Z,970.7585
2023-03-21T02:18:00.582Z,970.7492
2023-03-21T02:19:02.038Z,970.7392
2023-03-21T02:20:03.468Z,970.7385
2023-03-21T02:21:04.899Z,970.7430
2023-03-21T02:22:06.325Z,970.7408
2023-03-21T02:23:07.773Z,970.7531
2023-03-21T02:24:09.210Z,970.7623
2023-03-21T02:25:21.269Z,970.7662
2023-03-21T02:26:12.089Z,970.7700
2023-03-21T02:27:13.528Z,970.7562
2023-03-21T02:28:14.956Z,970.7515
2023-03-21T02:29:17.736Z,970.7330
2023-03-21T02:30:28.247Z,970.7215
2023-03-21T02:31:19.317Z,970.7146
2023-03-21T02:32:35.018Z,970.7108
2023-03-21T02:33:22.150Z,970.6977
2023-03-21T02:34:23.588Z,970.7092
2023-03-21T02:35:25.025Z,970.6970
2023-03-21T02:36:26.543Z,970.6877
2023-03-21T02:37:36.753Z,970.6777
2023-03-21T02:38:29.380Z,970.6761
2023-03-21T02:39:30.792Z,970.6708
2023-03-21T02:40:32.247Z,970.6592
2023-03-21T02:41:40.133Z,970.6385
2023-03-21T02:42:35.138Z,970.6262
2023-03-21T02:43:36.543Z,970.6077
2023-03-21T02:44:37.994Z,970.5892
2023-03-21T02:45:39.424Z,970.5939
2023-03-21T02:46:45.653Z,970.5892
2023-03-21T02:47:42.333Z,970.6015
2023-03-21T02:48:50.672Z,970.5961
2023-03-21T02:49:45.193Z,970.5916
2023-03-21T02:50:46.622Z,970.5731
2023-03-21T02:51:48.105Z,970.5585
2023-03-21T02:52:49.490Z,970.5453
2023-03-21T02:54:04.574Z,970.5323
2023-03-21T02:54:52.368Z,970.5139
2023-03-21T02:55:53.807Z,970.5070
2023-03-21T02:56:55.380Z,970.4969
2023-03-21T02:57:56.870Z,970.4877
2023-03-21T02:58:58.174Z,970.4877
2023-03-21T03:00:07.524Z,970.4769
2023-03-21T03:01:01.020Z,970.4746
2023-03-21T03:02:02.459Z,970.4808
2023-03-21T03:03:09.869Z,970.4846
2023-03-21T03:04:05.345Z,970.4885
2023-03-21T03:05:18.005Z,970.4877
2023-03-21T03:06:08.225Z,970.4908
2023-03-21T03:07:09.624Z,970.5100
2023-03-21T03:08:11.105Z,970.5223
2023-03-21T03:09:12.511Z,970.5339
2023-03-21T03:10:13.943Z,970.5316
2023-03-21T03:11:15.373Z,970.5269
2023-03-21T03:12:16.827Z,970.5208
2023-03-21T03:13:18.254Z,970.5146
2023-03-21T03:15:21.128Z,970.4861
2023-03-21T03:16:22.570Z,970.4892
2023-03-21T03:17:24.013Z,970.4877
2023-03-21T03:18:25.454Z,970.4992
2023-03-21T03:19:26.885Z,970.4977
2023-03-21T03:20:28.323Z,970.4969
2023-03-21T03:21:29.755Z,970.5008
2023-03-21T03:22:31.197Z,970.5038
2023-03-21T03:23:32.631Z,970.5131
2023-03-21T03:24:34.093Z,970.5200
2023-03-21T03:25:42.605Z,970.5177
2023-03-21T03:26:36.961Z,970.5123
2023-03-21T03:27:38.380Z,970.4985
2023-03-21T03:28:39.840Z,970.5046
2023-03-21T03:29:41.263Z,970.5085
2023-03-21T03:30:54.070Z,970.5070
2023-03-21T03:31:44.206Z,970.5085
2023-03-21T03:32:45.577Z,970.5070
2023-03-21T03:33:47.009Z,970.4992
2023-03-21T03:34:48.451Z,970.4892
2023-03-21T03:36:02.568Z,970.4838
2023-03-21T03:36:51.372Z,970.4808
2023-03-21T03:37:52.746Z,970.4785
2023-03-21T03:38:54.185Z,970.4830
2023-03-21T03:39:55.617Z,970.4838
2023-03-21T03:40:57.061Z,970.4830
2023-03-21T03:42:27.199Z,970.4777
2023-03-21T03:42:59.929Z,970.4723
2023-03-21T03:44:01.363Z,970.4661
2023-03-21T03:45:02.810Z,970.4654
2023-03-21T03:46:04.234Z,970.4700
2023-03-21T03:47:05.691Z,970.4661
2023-03-21T03:48:07.155Z,970.4623
2023-03-21T03:49:08.566Z,970.4700
2023-03-21T03:50:09.983Z,970.4631
2023-03-21T03:51:11.425Z,970.4677
2023-03-21T03:52:12.867Z,970.4738
2023-03-21T03:53:18.358Z,970.4746
2023-03-21T03:54:15.726Z,970.4823
2023-03-21T03:55:17.166Z,970.4830
2023-03-21T03:56:18.597Z,970.4808
2023-03-21T03:57:20.046Z,970.4854
2023-03-21T03:58:24.252Z,970.4838
2023-03-21T03:59:22.902Z,970.4808
2023-03-21T04:00:24.329Z,970.4769
2023-03-21T04:01:25.768Z,970.4738
2023-03-21T04:02:27.289Z,970.4692
2023-03-21T04:03:32.416Z,970.4562
2023-03-21T04:04:30.147Z,970.4423
2023-03-21T04:05:31.513Z,970.4408
2023-03-21T04:06:32.944Z,970.4315
2023-03-21T04:07:34.385Z,970.4362
2023-03-21T04:08:35.854Z,970.4377
2023-03-21T04:09:44.071Z,970.4485
2023-03-21T04:10:39.099Z,970.4531
2023-03-21T04:11:40.122Z,970.4500
2023-03-21T04:12:41.572Z,970.4438
2023-03-21T04:13:43.047Z,970.4392
2023-03-21T04:14:46.976Z,970.4400
2023-03-21T04:15:46.072Z,970.4446
2023-03-21T04:16:47.307Z,970.4470
2023-03-21T04:17:48.719Z,970.4485
2023-03-21T04:18:50.170Z,970.4623
2023-03-21T04:19:55.476Z,970.4815
2023-03-21T04:20:53.031Z,970.4885
2023-03-21T04:21:54.455Z,970.4962
2023-03-21T04:22:55.893Z,970.5054
2023-03-21T04:23:57.323Z,970.5123
2023-03-21T04:25:00.517Z,970.5070
2023-03-21T04:26:00.189Z,970.5000
2023-03-21T04:27:01.642Z,970.4915
2023-03-21T04:28:03.045Z,970.4792
2023-03-21T04:29:04.484Z,970.4800
2023-03-21T04:30:05.911Z,970.4915
2023-03-21T04:31:16.098Z,970.4985
2023-03-21T04:32:08.820Z,970.5062
2023-03-21T04:33:10.218Z,970.4969
2023-03-21T04:34:11.641Z,970.4908
2023-03-21T04:35:13.088Z,970.4869
2023-03-21T04:36:14.546Z,970.4838
2023-03-21T04:37:15.957Z,970.4808
2023-03-21T04:38:17.477Z,970.4700
2023-03-21T04:39:18.918Z,970.4792
2023-03-21T04:40:20.367Z,970.4808
2023-03-21T04:41:21.801Z,970.4753
2023-03-21T04:42:23.210Z,970.4869
2023-03-21T04:43:24.656Z,970.5023
2023-03-21T04:44:26.082Z,970.5123
2023-03-21T04:45:27.527Z,970.5262
2023-03-21T04:46:28.968Z,970.5292
2023-03-21T04:47:30.396Z,970.5146
2023-03-21T04:48:31.831Z,970.4892
2023-03-21T04:49:33.287Z,970.4708
2023-03-21T04:50:34.921Z,970.4477
2023-03-21T04:51:36.140Z,970.4338
2023-03-21T04:52:37.588Z,970.4192
2023-03-21T04:53:39.019Z,970.4192
2023-03-21T04:54:40.450Z,970.4246
2023-03-21T04:55:41.885Z,970.4323
2023-03-21T04:56:43.329Z,970.4370
2023-03-21T04:57:44.772Z,970.4400
2023-03-21T04:58:46.191Z,970.4454
2023-03-21T04:59:47.640Z,970.4300
2023-03-21T05:00:49.090Z,970.4292
2023-03-21T05:01:50.498Z,970.4315
2023-03-21T05:02:51.929Z,970.4323
2023-03-21T05:03:53.382Z,970.4431
2023-03-21T05:04:54.794Z,970.4508
2023-03-21T05:05:56.241Z,970.4684
2023-03-21T05:06:57.664Z,970.4715
2023-03-21T05:07:59.106Z,970.4761
2023-03-21T05:09:00.555Z,970.4777
2023-03-21T05:10:02.776Z,970.4846
2023-03-21T05:11:03.408Z,970.4877
2023-03-21T05:12:04.864Z,970.4969
2023-03-21T05:13:06.299Z,970.4861
2023-03-21T05:14:07.725Z,970.4938
2023-03-21T05:15:09.194Z,970.5015
2023-03-21T05:16:10.604Z,970.5000
2023-03-21T05:17:12.044Z,970.4923
2023-03-21T05:18:13.463Z,970.4900
2023-03-21T05:19:14.903Z,970.4838
2023-03-21T05:20:16.380Z,970.4731
2023-03-21T05:21:17.768Z,970.4608
2023-03-21T05:22:19.213Z,970.4646
2023-03-21T05:23:20.636Z,970.4438
2023-03-21T05:24:22.079Z,970.4431
2023-03-21T05:25:23.513Z,970.4377
2023-03-21T05:26:24.956Z,970.4523
2023-03-21T05:27:26.390Z,970.4600
2023-03-21T05:28:27.825Z,970.4547
2023-03-21T05:29:29.260Z,970.4562
2023-03-21T05:30:30.705Z,970.4531
2023-03-21T05:31:32.143Z,970.4523
2023-03-21T05:32:33.575Z,970.4362
2023-03-21T05:33:35.000Z,970.4485
2023-03-21T05:34:36.442Z,970.4415
2023-03-21T05:35:38.141Z,970.4485
2023-03-21T05:36:39.349Z,970.4531
2023-03-21T05:37:40.753Z,970.4539
2023-03-21T05:38:42.192Z,970.4623
2023-03-21T05:39:43.623Z,970.4708
2023-03-21T05:40:45.061Z,970.4846
2023-03-21T05:41:46.521Z,970.5038
2023-03-21T05:42:47.927Z,970.5139
2023-03-21T05:43:49.370Z,970.5085
2023-03-21T05:44:50.794Z,970.4992
2023-03-21T05:45:52.267Z,970.5146
2023-03-21T05:46:53.683Z,970.4977
2023-03-21T05:47:55.129Z,970.3631
2023-03-21T05:48:56.541Z,970.2123
2023-03-21T05:49:57.971Z,970.1616
2023-03-21T05:50:59.436Z,970.1146
2023-03-21T05:52:00.860Z,970.1238
2023-03-21T05:53:02.314Z,970.1830
2023-03-21T05:54:03.757Z,970.2639
2023-03-21T05:55:05.174Z,970.2892
2023-03-21T05:56:06.614Z,970.2908
2023-03-21T05:57:08.062Z,970.3130
2023-03-21T05:58:09.478Z,970.3215
2023-03-21T05:59:10.919Z,970.3377
2023-03-21T06:00:12.369Z,970.3454
2023-03-21T06:01:13.791Z,970.3439
2023-03-21T06:02:15.311Z,970.3608
2023-03-21T06:03:16.663Z,970.3661
2023-03-21T06:04:18.140Z,970.3692
2023-03-21T06:05:19.531Z,970.3585
2023-03-21T06:06:20.972Z,970.3630
2023-03-21T06:07:22.406Z,970.3630
2023-03-21T06:08:23.833Z,970.3730
2023-03-21T06:09:25.274Z,970.3800
2023-03-21T06:10:26.702Z,970.3746
2023-03-21T06:11:28.166Z,970.3700
2023-03-21T06:12:29.580Z,970.3738
2023-03-21T06:13:31.018Z,970.3762
2023-03-21T06:14:32.459Z,970.3738
2023-03-21T06:15:33.880Z,970.3715
2023-03-21T06:16:35.323Z,970.3592
2023-03-21T06:17:36.754Z,970.3577
2023-03-21T06:18:38.196Z,970.3523
2023-03-21T06:19:39.630Z,970.3646
2023-03-21T06:20:41.056Z,970.3723
2023-03-21T06:21:42.520Z,970.3862
2023-03-21T06:22:43.934Z,970.3831
2023-03-21T06:23:45.376Z,970.3738
2023-03-21T06:24:46.802Z,970.3923
2023-03-21T06:25:48.253Z,970.3947
2023-03-21T06:26:49.683Z,970.3939
2023-03-21T06:27:51.119Z,970.3923
2023-03-21T06:28:52.540Z,970.3939
2023-03-21T06:29:53.987Z,970.3900
2023-03-21T06:30:55.501Z,970.3792
2023-03-21T06:31:56.867Z,970.3831
2023-03-21T06:32:58.327Z,970.3862
2023-03-21T06:33:59.733Z,970.3831
2023-03-21T06:35:01.168Z,970.3862
2023-03-21T06:36:02.621Z,970.3808
2023-03-21T06:37:04.051Z,970.3823
2023-03-21T06:38:05.516Z,970.3792
2023-03-21T06:39:06.917Z,970.3808
2023-03-21T06:40:08.364Z,970.3870
2023-03-21T06:41:09.780Z,970.3939
2023-03-21T06:42:11.233Z,970.4123
2023-03-21T06:43:12.669Z,970.4084
2023-03-21T06:44:14.144Z,970.3977
2023-03-21T06:45:15.542Z,970.4100
2023-03-21T06:46:17.005Z,970.3992
2023-03-21T06:47:18.426Z,970.3992
2023-03-21T06:48:19.954Z,970.4069
2023-03-21T06:49:21.301Z,970.4046
2023-03-21T06:50:22.732Z,970.4092
2023-03-21T06:51:24.169Z,970.4115
2023-03-21T06:52:25.607Z,970.4115
2023-03-21T06:53:27.038Z,970.4031
2023-03-21T06:54:28.475Z,970.4115
2023-03-21T06:55:29.896Z,970.4100
2023-03-21T06:56:31.337Z,970.4115
2023-03-21T06:57:32.777Z,970.4131
2023-03-21T06:58:34.224Z,970.4177
2023-03-21T06:59:35.641Z,970.4223
2023-03-21T07:00:37.121Z,970.4254
2023-03-21T07:01:38.538Z,970.4261
2023-03-21T07:02:40.040Z,970.4362
2023-03-21T07:03:41.397Z,970.4454
2023-03-21T07:04:42.836Z,970.4669
2023-03-21T07:05:44.262Z,970.4830
2023-03-21T07:06:45.729Z,970.4992
2023-03-21T07:07:47.143Z,970.5015
2023-03-21T07:08:48.585Z,970.5123
2023-03-21T07:09:50.018Z,970.5354
2023-03-21T07:10:51.451Z,970.5361
2023-03-21T07:11:52.903Z,970.5331
2023-03-21T07:12:54.339Z,970.5392
2023-03-21T07:13:55.780Z,970.5446
2023-03-21T07:14:57.210Z,970.5577
2023-03-21T07:15:58.660Z,970.5608
2023-03-21T07:17:00.185Z,970.5662
2023-03-21T07:18:01.527Z,970.5638
2023-03-21T07:19:02.974Z,970.5646
2023-03-21T07:20:04.413Z,970.5569
2023-03-21T07:21:05.856Z,970.5530
2023-03-21T07:22:07.322Z,970.5515
2023-03-21T07:23:08.741Z,970.5492
2023-03-21T07:24:10.170Z,970.5585
2023-03-21T07:25:11.687Z,970.5708
2023-03-21T07:26:13.069Z,970.5831
2023-03-21T07:27:14.508Z,970.6038
2023-03-21T07:28:15.923Z,970.6230
2023-03-21T07:29:17.387Z,970.6292
2023-03-21T07:30:18.810Z,970.6192
2023-03-21T07:31:20.277Z,970.6115
2023-03-21T07:32:21.683Z,970.6077
2023-03-21T07:33:23.157Z,970.5916
2023-03-21T07:34:24.554Z,970.5869
2023-03-21T07:35:26.021Z,970.5754
2023-03-21T07:36:27.436Z,970.5608
2023-03-21T07:37:28.906Z,970.5608
2023-03-21T07:38:30.318Z,970.5530
2023-03-21T07:39:31.761Z,970.5423
2023-03-21T07:40:33.215Z,970.5538
2023-03-21T07:41:34.641Z,970.5530
2023-03-21T07:42:36.090Z,970.5538
2023-03-21T07:43:39.211Z,970.5569
2023-03-21T17:02:34.837Z,967.8250
2023-03-21T17:03:36.294Z,967.8484
2023-03-21T17:04:37.754Z,967.8508
2023-03-21T17:05:39.145Z,967.8661
2023-03-21T17:06:40.575Z,967.8715
2023-03-21T17:07:42.005Z,967.8754
2023-03-21T17:08:43.439Z,967.8777
2023-03-21T17:09:44.880Z,967.8808
2023-03-21T17:10:46.314Z,967.8939
2023-03-21T17:11:47.739Z,967.8885
2023-03-21T17:12:49.186Z,967.9131
2023-03-21T17:13:50.601Z,967.9261
2023-03-21T17:14:52.038Z,967.9323
2023-03-21T17:15:53.524Z,967.9400
2023-03-21T17:16:54.983Z,967.9500
2023-03-21T17:17:56.341Z,967.9631
2023-03-21T17:18:57.785Z,967.9723
2023-03-21T17:19:59.244Z,967.9823
2023-03-21T17:21:00.667Z,967.9861
2023-03-21T17:22:02.082Z,968.0015
2023-03-21T17:23:03.525Z,968.0054
2023-03-21T17:24:04.964Z,968.0247
2023-03-21T17:25:06.388Z,968.0438
2023-03-21T17:26:07.821Z,968.0523
2023-03-21T17:27:09.262Z,968.0670
2023-03-21T17:28:10.701Z,968.0723
2023-03-21T17:29:12.126Z,968.0731
2023-03-21T17:30:13.626Z,968.0892
2023-03-21T17:31:15.058Z,968.1038
2023-03-21T17:32:16.431Z,968.1192
2023-03-21T17:33:17.880Z,968.1308
2023-03-21T17:34:19.288Z,968.1400
2023-03-21T17:35:20.751Z,968.1516
2023-03-21T17:36:22.142Z,968.1669
2023-03-21T17:37:23.594Z,968.1669
2023-03-21T17:38:25.009Z,968.1608
2023-03-21T17:39:26.442Z,968.1561
2023-03-21T17:40:27.873Z,968.1447
2023-03-21T17:41:29.309Z,968.1431
2023-03-21T17:42:30.737Z,968.1431
2023-03-21T17:43:32.178Z,968.1346
2023-03-21T17:44:33.590Z,968.1262
2023-03-21T17:45:35.027Z,968.1215
2023-03-21T17:46:36.513Z,968.1238
2023-03-21T17:47:37.913Z,968.1200
2023-03-21T17:48:39.333Z,968.1177
2023-03-21T17:49:40.759Z,968.1208
2023-03-21T17:50:42.185Z,968.1215
2023-03-21T17:51:43.632Z,968.1200
2023-03-21T17:52:45.058Z,968.1192
2023-03-21T17:53:46.487Z,968.1331
2023-03-21T17:54:47.951Z,968.1469
2023-03-21T17:55:49.377Z,968.1646
2023-03-21T17:56:50.801Z,968.1838
2023-03-21T17:57:52.239Z,968.1877
2023-03-21T17:58:53.665Z,968.1962
2023-03-21T17:59:55.108Z,968.2039
2023-03-21T18:00:56.546Z,968.2047
2023-03-21T18:01:58.023Z,968.1862
2023-03-21T18:02:59.490Z,968.1838
2023-03-21T18:04:00.889Z,968.1792
2023-03-21T18:05:02.396Z,968.1892
2023-03-21T18:06:03.736Z,968.1830
2023-03-21T18:07:06.919Z,968.1977
2023-03-21T18:08:11.037Z,968.1938
2023-03-21T18:09:08.024Z,968.2062
2023-03-21T18:10:09.467Z,968.1977
2023-03-21T18:11:10.899Z,968.2047
2023-03-21T18:12:12.329Z,968.2115
2023-03-21T18:13:13.763Z,968.2253
2023-03-21T18:14:18.081Z,968.2315
2023-03-21T18:15:18.917Z,968.2338
2023-03-21T18:16:18.112Z,968.2292
2023-03-21T18:17:19.478Z,968.2285
2023-03-21T18:18:20.918Z,968.2361
2023-03-21T18:19:22.344Z,968.2330
2023-03-21T18:20:24.258Z,968.2354
2023-03-21T18:21:26.296Z,968.2446
2023-03-21T18:22:26.648Z,968.2523
2023-03-21T18:23:28.079Z,968.2546
2023-03-21T18:24:29.519Z,968.2592
2023-03-21T18:25:30.934Z,968.2600
2023-03-21T18:26:32.429Z,968.2731
2023-03-21T18:27:35.301Z,968.2769
2023-03-21T18:28:35.228Z,968.2731
2023-03-21T18:31:00.286Z,968.2731
2023-03-21T18:31:39.529Z,968.2739
2023-03-21T18:32:41.015Z,968.2808
2023-03-21T18:33:42.389Z,968.2831
2023-03-21T18:34:43.831Z,968.2854
2023-03-21T18:35:46.374Z,968.2800
2023-03-21T18:36:49.141Z,968.2831
2023-03-21T18:37:48.134Z,968.2885
2023-03-21T18:38:49.538Z,968.2992
2023-03-21T18:39:50.976Z,968.3062
2023-03-21T18:40:52.395Z,968.3085
2023-03-21T18:41:57.762Z,968.3146
2023-03-21T18:44:05.438Z,968.3362
2023-03-21T18:44:58.189Z,968.3347
2023-03-21T18:45:59.571Z,968.3362
2023-03-21T18:47:01.018Z,968.3339
2023-03-21T18:48:02.463Z,968.3400
2023-03-21T18:49:33.941Z,968.3546
2023-03-21T18:50:14.125Z,968.3708
2023-03-21T18:51:06.718Z,968.3808
2023-03-21T18:52:08.175Z,968.3908
2023-03-21T18:53:09.572Z,968.3962
2023-03-21T18:54:11.013Z,968.3908
2023-03-21T18:55:12.441Z,968.3846
2023-03-21T18:56:40.797Z,968.3746
2023-03-21T18:58:16.744Z,968.3416
2023-03-21T18:59:18.171Z,968.3239
2023-03-21T19:00:19.646Z,968.3200
2023-03-21T19:01:21.165Z,968.3254
2023-03-21T19:02:22.633Z,968.3292
2023-03-21T19:03:35.893Z,968.3385
2023-03-21T19:04:30.045Z,968.3592
2023-03-21T19:05:26.836Z,968.3623
2023-03-21T19:06:28.237Z,968.3792
2023-03-21T19:07:29.644Z,968.3870
2023-03-21T19:08:31.120Z,968.3977
2023-03-21T19:09:32.499Z,968.4153
2023-03-21T19:10:33.944Z,968.4292
2023-03-21T19:11:35.395Z,968.4385
2023-03-21T19:12:36.822Z,968.4531
2023-03-21T19:13:38.224Z,968.4539
2023-03-21T19:14:39.662Z,968.4569
2023-03-21T19:15:41.525Z,968.4669
2023-03-21T19:17:08.476Z,968.4585
2023-03-21T19:18:54.519Z,968.4684
2023-03-21T19:19:46.908Z,968.4500
2023-03-21T19:20:48.264Z,968.4477
2023-03-21T19:21:49.692Z,968.4500
2023-03-21T19:22:51.141Z,968.4508
2023-03-21T19:24:25.259Z,968.4646
2023-03-21T19:24:54.003Z,968.4684
2023-03-21T19:25:55.420Z,968.4646
2023-03-21T19:26:56.858Z,968.4523
2023-03-21T19:27:58.300Z,968.4431
2023-03-21T19:28:59.729Z,968.4415
2023-03-21T19:30:13.466Z,968.4323
2023-03-21T19:31:02.590Z,968.4330
2023-03-21T19:32:04.088Z,968.4323
2023-03-21T19:33:05.472Z,968.4362
2023-03-21T19:34:06.889Z,968.4308
2023-03-21T19:35:08.366Z,968.4354
2023-03-21T19:36:20.930Z,968.4431
2023-03-21T19:37:11.240Z,968.4477
2023-03-21T19:38:12.633Z,968.4547
2023-03-21T19:39:14.072Z,968.4639
2023-03-21T19:40:15.511Z,968.4708
2023-03-21T19:41:16.959Z,968.4823
2023-03-21T19:42:18.474Z,968.4915
2023-03-21T19:43:32.270Z,968.5100
2023-03-21T19:44:21.249Z,968.5162
2023-03-21T19:45:22.679Z,968.5154
2023-03-21T19:46:24.113Z,968.5262
2023-03-21T19:47:25.562Z,968.5215
2023-03-21T19:48:27.179Z,968.5285
2023-03-21T19:49:48.535Z,968.5285
2023-03-21T19:51:24.467Z,968.5208
2023-03-21T19:51:31.582Z,968.5308
2023-03-21T19:52:32.731Z,968.5254
2023-03-21T19:53:34.163Z,968.5300
2023-03-21T19:54:35.591Z,968.5300
2023-03-21T19:55:37.030Z,968.5239
2023-03-21T19:56:38.451Z,968.5100
2023-03-21T19:57:39.939Z,968.5062
2023-03-21T19:58:41.330Z,968.4985
2023-03-21T19:59:42.775Z,968.4854
2023-03-21T20:00:44.205Z,968.4792
2023-03-21T20:01:45.998Z,968.4700
2023-03-21T20:02:47.129Z,968.4730
2023-03-21T20:03:48.573Z,968.4877
2023-03-21T20:04:49.950Z,968.5000
2023-03-21T20:05:51.461Z,968.5100
2023-03-21T20:06:52.817Z,968.5200
2023-03-21T20:07:54.265Z,968.5162
2023-03-21T20:09:41.213Z,968.5154
2023-03-21T20:09:57.576Z,968.5077
2023-03-21T20:10:58.562Z,968.4900
2023-03-21T20:12:00.012Z,968.4830
2023-03-21T20:13:01.450Z,968.4838
2023-03-21T20:14:02.898Z,968.4892
2023-03-21T20:15:16.661Z,968.4846
2023-03-21T20:16:05.791Z,968.4892
2023-03-21T20:17:07.239Z,968.4792
2023-03-21T20:18:08.632Z,968.4885
2023-03-21T20:19:10.073Z,968.5000
2023-03-21T20:20:11.508Z,968.4930
2023-03-21T20:21:17.667Z,968.4923
2023-03-21T20:22:24.515Z,968.4885
2023-03-21T20:23:16.093Z,968.4877
2023-03-21T20:24:17.240Z,968.4908
2023-03-21T20:25:18.665Z,968.4854
2023-03-21T20:26:20.098Z,968.4861
2023-03-21T20:27:21.524Z,968.4846
2023-03-21T20:28:27.128Z,968.4908
2023-03-21T20:30:25.841Z,968.5131
2023-03-21T20:31:27.391Z,968.5346
2023-03-21T20:32:28.713Z,968.5523
2023-03-21T20:33:30.146Z,968.5785
2023-03-21T20:34:31.598Z,968.5954
2023-03-21T20:36:23.681Z,968.5977
2023-03-21T20:36:40.442Z,968.5946
2023-03-21T20:37:35.954Z,968.5877
2023-03-21T20:38:37.333Z,968.5762
2023-03-21T20:39:38.753Z,968.5600
2023-03-21T20:40:40.537Z,968.5523
2023-03-21T20:41:41.629Z,968.5453
2023-03-21T20:42:43.078Z,968.5385
2023-03-21T20:44:57.940Z,968.5577
2023-03-21T20:45:47.377Z,968.5577
2023-03-21T20:46:48.902Z,968.5554
2023-03-21T20:47:50.278Z,968.5615
2023-03-21T20:48:51.717Z,968.5630
2023-03-21T20:49:53.126Z,968.5615
2023-03-21T20:50:58.883Z,968.5615
2023-03-21T20:52:49.823Z,968.5585
2023-03-21T20:53:06.957Z,968.5562
2023-03-21T20:53:58.941Z,968.5408
2023-03-21T20:55:00.340Z,968.5377
2023-03-21T20:56:01.757Z,968.5208
2023-03-21T20:57:03.402Z,968.5269
2023-03-21T20:58:26.761Z,968.5215
2023-03-21T20:59:17.398Z,968.5292
2023-03-21T21:00:07.492Z,968.5423
2023-03-21T21:01:08.996Z,968.5438
2023-03-21T21:02:10.362Z,968.5354
2023-03-21T21:03:11.894Z,968.5323
2023-03-21T21:04:15.170Z,968.5162
2023-03-21T21:05:27.456Z,968.5008
2023-03-21T21:06:16.231Z,968.4869
2023-03-21T21:07:17.586Z,968.4562
2023-03-21T21:08:19.000Z,968.4454
2023-03-21T21:09:20.433Z,968.4370
2023-03-21T21:10:22.368Z,968.4215
2023-03-21T21:12:24.688Z,968.4292
2023-03-21T21:13:26.099Z,968.4285
2023-03-21T21:14:27.544Z,968.4300
2023-03-21T21:15:28.974Z,968.4323
2023-03-21T21:16:30.421Z,968.4346
2023-03-21T21:17:54.483Z,968.4385
2023-03-21T21:18:33.229Z,968.4515
2023-03-21T21:19:34.661Z,968.4577
2023-03-21T21:20:36.420Z,968.4485
2023-03-21T21:21:37.522Z,968.4438
2023-03-21T21:22:39.327Z,968.4492
2023-03-21T21:23:40.339Z,968.4446
2023-03-21T21:24:41.752Z,968.4446
2023-03-21T21:25:43.196Z,968.4500
2023-03-21T21:26:44.631Z,968.4562
2023-03-21T21:27:46.034Z,968.4577